createdAt,value
2019-03-06T00:00:33.710Z,39.85
2019-03-06T00:03:05.908Z,39.83
2019-03-06T00:05:38.440Z,39.90
2019-03-06T00:08:11.103Z,39.94
2019-03-06T00:10:43.579Z,39.97
2019-03-06T00:13:15.985Z,40.22
2019-03-06T00:15:48.902Z,40.22
2019-03-06T00:18:21.330Z,40.14
2019-03-06T00:20:54.419Z,40.06
2019-03-06T00:23:26.900Z,40.19
2019-03-06T00:26:00.357Z,39.91
2019-03-06T00:28:32.900Z,39.81
2019-03-06T00:31:06.335Z,39.91
2019-03-06T00:34:05.460Z,39.82
2019-03-06T00:36:37.873Z,39.96
2019-03-06T00:39:11.352Z,39.82
2019-03-06T00:41:46.370Z,39.89
2019-03-06T00:44:18.888Z,39.86
2019-03-06T00:46:51.927Z,40.06
2019-03-06T00:49:24.113Z,40.20
2019-03-06T00:51:56.922Z,40.15
2019-03-06T00:54:29.051Z,40.29
2019-03-06T00:57:01.513Z,40.11
2019-03-06T00:59:33.856Z,39.52
2019-03-06T01:02:07.105Z,39.71
2019-03-06T01:04:39.482Z,40.15
2019-03-06T01:07:11.879Z,40.15
2019-03-06T01:09:44.339Z,39.99
2019-03-06T01:12:16.727Z,39.91
2019-03-06T01:14:47.896Z,39.92
2019-03-06T01:17:20.125Z,40.25
2019-03-06T01:19:52.922Z,40.41
2019-03-06T01:22:25.895Z,40.46
2019-03-06T01:24:58.567Z,39.85
2019-03-06T01:27:31.349Z,40.43
2019-03-06T01:30:04.024Z,40.36
2019-03-06T01:32:37.006Z,40.59
2019-03-06T01:35:34.435Z,39.49
2019-03-06T01:38:29.327Z,40.30
2019-03-06T01:41:06.491Z,40.23
2019-03-06T01:43:49.827Z,40.25
2019-03-06T01:46:22.033Z,40.24
2019-03-06T01:48:54.327Z,39.89
2019-03-06T01:51:26.548Z,40.50
2019-03-06T01:53:58.878Z,40.13
2019-03-06T01:56:30.937Z,40.13
2019-03-06T01:59:03.101Z,40.44
2019-03-06T02:01:35.425Z,40.29
2019-03-06T02:04:06.948Z,40.21
2019-03-06T02:06:39.084Z,40.16
2019-03-06T02:09:14.332Z,40.34
2019-03-06T02:11:46.916Z,40.03
2019-03-06T02:14:18.910Z,40.60
2019-03-06T02:16:50.982Z,40.50
2019-03-06T02:19:23.331Z,39.85
2019-03-06T02:21:55.869Z,40.17
2019-03-06T02:24:28.017Z,39.98
2019-03-06T02:27:00.333Z,40.12
2019-03-06T02:29:32.858Z,40.44
2019-03-06T02:32:04.909Z,40.35
2019-03-06T02:34:37.913Z,39.46
2019-03-06T02:37:10.105Z,40.47
2019-03-06T02:39:42.885Z,39.99
2019-03-06T02:42:14.900Z,39.98
2019-03-06T02:44:48.135Z,40.22
2019-03-06T02:47:20.462Z,40.31
2019-03-06T02:49:53.054Z,39.92
2019-03-06T02:52:25.773Z,39.84
2019-03-06T02:54:59.403Z,40.51
2019-03-06T02:57:31.894Z,40.42
2019-03-06T03:00:26.333Z,40.34
2019-03-06T03:03:08.347Z,40.55
2019-03-06T03:05:50.031Z,39.89
2019-03-06T03:08:22.435Z,40.14
2019-03-06T03:10:55.102Z,40.46
2019-03-06T03:13:28.006Z,40.41
2019-03-06T03:16:00.904Z,40.29
2019-03-06T03:18:33.331Z,40.45
2019-03-06T03:21:05.889Z,39.54
2019-03-06T03:23:38.342Z,40.70
2019-03-06T03:26:10.931Z,40.51
2019-03-06T03:28:43.329Z,40.91
2019-03-06T03:31:15.892Z,40.39
2019-03-06T03:33:48.328Z,40.71
2019-03-06T03:36:20.886Z,39.90
2019-03-06T03:38:53.068Z,40.76
2019-03-06T03:41:25.544Z,40.14
2019-03-06T03:44:00.861Z,39.66
2019-03-06T03:46:32.907Z,39.66
2019-03-06T03:49:04.896Z,40.54
2019-03-06T03:51:38.360Z,40.62
2019-03-06T03:54:11.372Z,40.59
2019-03-06T03:56:43.865Z,40.36
2019-03-06T03:59:16.086Z,40.38
2019-03-06T04:01:48.882Z,40.72
2019-03-06T04:04:20.874Z,40.32
2019-03-06T04:06:53.090Z,40.83
2019-03-06T04:09:25.284Z,39.90
2019-03-06T04:11:57.906Z,40.84
2019-03-06T04:14:29.923Z,40.59
2019-03-06T04:17:02.116Z,40.79
2019-03-06T04:19:34.538Z,40.39
2019-03-06T04:22:07.052Z,40.60
2019-03-06T04:24:39.335Z,40.26
2019-03-06T04:27:11.901Z,40.70
2019-03-06T04:29:44.900Z,40.54
2019-03-06T04:32:16.896Z,40.58
2019-03-06T04:34:48.874Z,40.54
2019-03-06T04:37:21.040Z,40.60
2019-03-06T04:39:53.296Z,40.63
2019-03-06T04:42:26.344Z,40.81
2019-03-06T04:44:59.351Z,40.49
2019-03-06T04:47:31.908Z,40.22
2019-03-06T04:50:04.332Z,40.52
2019-03-06T04:52:36.939Z,40.69
2019-03-06T04:55:09.361Z,40.51
2019-03-06T04:57:41.904Z,40.58
2019-03-06T05:00:15.936Z,40.68
2019-03-06T05:02:48.528Z,40.75
2019-03-06T05:05:20.889Z,40.69
2019-03-06T05:07:53.369Z,40.47
2019-03-06T05:10:25.926Z,40.50
2019-03-06T05:12:58.003Z,40.58
2019-03-06T05:15:30.314Z,40.32
2019-03-06T05:18:17.855Z,40.39
2019-03-06T05:20:50.098Z,40.70
2019-03-06T05:23:22.858Z,40.31
2019-03-06T05:25:55.362Z,40.49
2019-03-06T05:28:27.964Z,40.12
2019-03-06T05:31:00.328Z,39.97
2019-03-06T05:33:32.951Z,40.08
2019-03-06T05:37:37.582Z,40.09
2019-03-06T05:40:09.828Z,40.48
2019-03-06T05:42:41.937Z,40.48
2019-03-06T05:45:15.792Z,40.13
2019-03-06T05:47:48.284Z,40.31
2019-03-06T05:50:20.667Z,40.41
2019-03-06T05:52:52.704Z,40.59
2019-03-06T05:55:23.890Z,40.25
2019-03-06T05:57:56.451Z,40.06
2019-03-06T06:00:29.777Z,40.38
2019-03-06T06:03:00.728Z,40.27
2019-03-06T06:05:33.356Z,39.98
2019-03-06T06:08:05.863Z,40.10
2019-03-06T06:10:38.872Z,40.24
2019-03-06T06:13:11.296Z,40.25
2019-03-06T06:15:43.834Z,40.18
2019-03-06T06:18:16.163Z,40.13
2019-03-06T06:20:51.524Z,39.70
2019-03-06T06:23:42.533Z,40.55
2019-03-06T06:26:14.886Z,40.16
2019-03-06T06:28:46.907Z,40.03
2019-03-06T06:31:19.339Z,40.27
2019-03-06T06:33:51.891Z,39.87
2019-03-06T06:36:24.320Z,40.09
2019-03-06T06:38:56.850Z,40.08
2019-03-06T06:41:29.853Z,40.09
2019-03-06T06:44:01.855Z,40.24
2019-03-06T06:46:34.079Z,39.00
2019-03-06T06:49:06.326Z,39.72
2019-03-06T06:53:07.877Z,40.24
2019-03-06T06:57:10.850Z,40.71
2019-03-06T07:00:59.120Z,40.31
2019-03-06T07:04:53.321Z,40.66
2019-03-06T07:07:45.719Z,40.35
2019-03-06T07:10:38.447Z,39.86
2019-03-06T07:13:35.479Z,40.01
2019-03-06T07:16:25.496Z,39.88
2019-03-06T07:19:22.494Z,40.12
2019-03-06T07:22:16.389Z,40.13
2019-03-06T07:25:19.669Z,40.00
2019-03-06T07:27:59.319Z,39.84
2019-03-06T07:30:50.285Z,39.84
2019-03-06T07:33:47.494Z,40.06
2019-03-06T07:36:37.416Z,39.97
2019-03-06T07:39:36.314Z,39.97
2019-03-06T07:42:29.784Z,39.84
2019-03-06T07:45:52.386Z,39.43
2019-03-06T07:48:52.487Z,39.79
2019-03-06T07:51:46.491Z,39.76
2019-03-06T07:54:46.484Z,40.11
2019-03-06T07:57:26.516Z,39.83
2019-03-06T07:59:59.333Z,39.69
2019-03-06T08:03:22.882Z,39.55
2019-03-06T08:05:55.090Z,39.81
2019-03-06T08:08:27.314Z,39.89
2019-03-06T08:10:59.409Z,39.75
2019-03-06T08:13:44.461Z,39.64
2019-03-06T08:16:31.315Z,39.58
2019-03-06T08:19:20.326Z,39.21
2019-03-06T08:22:11.326Z,39.50
2019-03-06T08:25:01.319Z,39.06
2019-03-06T08:27:33.975Z,38.80
2019-03-06T08:30:07.542Z,39.28
2019-03-06T08:32:40.029Z,39.57
2019-03-06T08:35:12.904Z,39.66
2019-03-06T08:37:45.444Z,39.73
2019-03-06T08:40:17.868Z,39.61
2019-03-06T08:42:50.010Z,39.61
2019-03-06T08:45:24.402Z,39.45
2019-03-06T08:48:15.096Z,39.37
2019-03-06T08:51:00.636Z,38.91
2019-03-06T08:53:38.332Z,39.59
2019-03-06T08:56:16.500Z,39.59
2019-03-06T08:59:10.563Z,39.15
2019-03-06T09:02:04.619Z,39.15
2019-03-06T09:04:57.774Z,38.96
2019-03-06T09:07:47.382Z,38.96
2019-03-06T09:10:44.464Z,38.81
2019-03-06T09:13:25.834Z,39.16
2019-03-06T09:16:19.488Z,38.81
2019-03-06T09:19:19.804Z,38.97
2019-03-06T09:21:58.288Z,38.96
2019-03-06T09:24:46.341Z,39.00
2019-03-06T09:27:26.318Z,38.59
2019-03-06T09:30:15.719Z,38.46
2019-03-06T09:32:59.616Z,38.89
2019-03-06T09:35:50.630Z,38.61
2019-03-06T09:38:47.439Z,38.71
2019-03-06T09:41:35.181Z,38.71
2019-03-06T09:44:13.320Z,38.54
2019-03-06T09:47:03.435Z,38.53
2019-03-06T09:49:41.439Z,38.42
2019-03-06T09:52:35.522Z,38.57
2019-03-06T09:55:15.459Z,38.44
2019-03-06T09:57:58.399Z,38.18
2019-03-06T10:00:58.511Z,38.00
2019-03-06T10:03:49.493Z,37.95
2019-03-06T10:06:39.450Z,37.86
2019-03-06T10:09:33.354Z,37.92
2019-03-06T10:12:27.468Z,37.75
2019-03-06T10:15:17.523Z,37.59
2019-03-06T10:17:54.463Z,37.73
2019-03-06T10:20:26.870Z,37.70
2019-03-06T10:22:59.592Z,37.56
2019-03-06T10:25:32.116Z,37.50
2019-03-06T10:28:06.534Z,37.48
2019-03-06T10:30:38.023Z,37.56
2019-03-06T10:33:10.324Z,37.51
2019-03-06T10:35:42.884Z,37.49
2019-03-06T10:38:16.822Z,37.50
2019-03-06T10:40:49.496Z,37.26
2019-03-06T10:43:23.660Z,37.19
2019-03-06T10:45:55.823Z,37.19
2019-03-06T10:48:27.912Z,37.10
2019-03-06T10:51:00.324Z,37.02
2019-03-06T10:53:41.045Z,36.89
2019-03-06T11:01:08.130Z,37.05
2019-03-06T11:03:45.295Z,37.02
2019-03-06T11:06:18.638Z,37.31
2019-03-06T11:08:51.493Z,37.31
2019-03-06T11:11:24.005Z,37.29
2019-03-06T11:14:05.764Z,37.32
2019-03-06T11:16:33.401Z,37.18
2019-03-06T11:19:07.657Z,37.18
2019-03-06T11:21:39.824Z,37.03
2019-03-06T11:24:11.912Z,37.03
2019-03-06T11:26:44.865Z,37.12
2019-03-06T11:29:19.311Z,37.04
2019-03-06T11:31:51.331Z,36.99
2019-03-06T11:34:23.991Z,36.96
2019-03-06T11:36:56.289Z,36.97
2019-03-06T11:39:28.890Z,36.92
2019-03-06T11:42:01.074Z,37.00
2019-03-06T11:44:33.913Z,36.99
2019-03-06T11:47:06.052Z,36.93
2019-03-06T11:49:38.876Z,36.92
2019-03-06T11:52:10.903Z,36.95
2019-03-06T11:54:43.345Z,36.95
2019-03-06T11:57:16.016Z,36.87
2019-03-06T11:59:48.588Z,36.82
2019-03-06T12:02:21.069Z,36.77
2019-03-06T12:04:53.850Z,36.72
2019-03-06T12:07:26.063Z,36.71
2019-03-06T12:09:59.075Z,36.53
2019-03-06T12:12:32.328Z,36.65
2019-03-06T12:15:04.860Z,36.67
2019-03-06T12:17:37.408Z,36.72
2019-03-06T12:20:10.338Z,36.62
2019-03-06T12:22:43.206Z,36.75
2019-03-06T12:25:16.085Z,36.81
2019-03-06T12:27:49.324Z,36.98
2019-03-06T12:30:21.918Z,36.84
2019-03-06T12:32:53.881Z,36.86
2019-03-06T12:35:25.887Z,36.83
2019-03-06T12:37:58.331Z,36.75
2019-03-06T12:40:30.821Z,36.48
2019-03-06T12:43:03.012Z,36.94
2019-03-06T12:45:35.482Z,36.87
2019-03-06T12:48:09.859Z,36.68
2019-03-06T12:50:42.475Z,36.68
2019-03-06T12:53:14.856Z,36.92
2019-03-06T12:55:47.360Z,36.97
2019-03-06T12:58:19.906Z,36.93
2019-03-06T13:00:51.999Z,36.92
2019-03-06T13:03:33.219Z,36.91
2019-03-06T13:06:07.935Z,36.75
2019-03-06T13:08:49.875Z,36.85
2019-03-06T13:11:26.927Z,36.51
2019-03-06T13:14:04.313Z,37.05
2019-03-06T13:16:41.194Z,36.77
2019-03-06T13:19:25.076Z,36.94
2019-03-06T13:22:10.742Z,36.85
2019-03-06T13:24:41.553Z,36.78
2019-03-06T13:27:17.576Z,36.99
2019-03-06T13:29:57.952Z,36.84
2019-03-06T13:32:49.215Z,36.84
2019-03-06T13:35:30.492Z,36.88
2019-03-06T13:38:12.050Z,36.74
2019-03-06T13:40:48.924Z,36.74
2019-03-06T13:43:25.727Z,36.61
2019-03-06T13:46:06.954Z,36.73
2019-03-06T13:48:52.265Z,36.71
2019-03-06T13:51:51.273Z,36.75
2019-03-06T13:54:30.800Z,36.39
2019-03-06T13:57:18.815Z,36.71
2019-03-06T14:00:00.501Z,36.67
2019-03-06T14:02:45.870Z,36.79
2019-03-06T14:05:26.711Z,36.59
2019-03-06T14:08:07.146Z,36.50
2019-03-06T14:10:49.652Z,36.24
2019-03-06T14:13:27.028Z,36.33
2019-03-06T14:16:08.829Z,36.55
2019-03-06T14:18:53.403Z,36.24
2019-03-06T14:21:32.224Z,36.86
2019-03-06T14:24:14.855Z,36.75
2019-03-06T14:27:04.633Z,36.74
2019-03-06T14:29:48.554Z,36.71
2019-03-06T14:32:34.840Z,36.84
2019-03-06T14:35:17.842Z,36.84
2019-03-06T14:37:53.133Z,36.70
2019-03-06T14:40:39.270Z,36.85
2019-03-06T14:43:23.487Z,36.85
2019-03-06T14:46:06.904Z,36.87
2019-03-06T14:48:50.408Z,37.06
2019-03-06T14:51:29.911Z,37.06
2019-03-06T14:54:15.650Z,36.52
2019-03-06T14:56:54.338Z,36.63
2019-03-06T14:59:28.367Z,36.78
2019-03-06T15:02:08.649Z,36.80
2019-03-06T15:04:44.692Z,36.87
2019-03-06T15:07:27.479Z,35.67
2019-03-06T15:09:59.868Z,34.86
2019-03-06T15:12:33.025Z,34.86
2019-03-06T15:15:05.856Z,34.75
2019-03-06T15:17:38.361Z,34.60
2019-03-06T15:20:17.849Z,34.48
2019-03-06T15:22:51.039Z,34.32
2019-03-06T15:25:24.301Z,34.25
2019-03-06T15:27:56.875Z,33.09
2019-03-06T15:30:29.333Z,33.52
2019-03-06T15:33:01.880Z,33.15
2019-03-06T15:35:34.317Z,33.13
2019-03-06T15:38:10.351Z,32.06
2019-03-06T15:40:42.964Z,32.69
2019-03-06T15:43:19.707Z,32.61
2019-03-06T15:45:50.714Z,32.46
2019-03-06T15:48:23.310Z,33.16
2019-03-06T15:50:55.858Z,34.70
2019-03-06T15:53:28.094Z,34.17
2019-03-06T15:56:00.875Z,34.40
2019-03-06T15:58:33.486Z,34.55
2019-03-06T16:01:05.887Z,33.73
2019-03-06T16:03:38.106Z,33.73
2019-03-06T16:06:19.925Z,33.62
2019-03-06T16:08:44.870Z,33.50
2019-03-06T16:11:19.701Z,33.50
2019-03-06T16:13:51.861Z,33.99
2019-03-06T16:16:24.323Z,33.99
2019-03-06T16:18:56.902Z,33.48
2019-03-06T16:21:29.059Z,35.10
2019-03-06T16:24:01.564Z,34.46
2019-03-06T16:26:34.328Z,35.06
2019-03-06T16:29:07.090Z,34.95
2019-03-06T16:31:39.884Z,34.95
2019-03-06T16:34:12.327Z,34.96
2019-03-06T16:36:44.871Z,34.40
2019-03-06T16:39:17.657Z,34.72
2019-03-06T16:41:48.779Z,34.51
2019-03-06T16:44:20.999Z,34.27
2019-03-06T16:46:53.339Z,34.39
2019-03-06T16:49:26.414Z,34.15
2019-03-06T16:51:58.860Z,34.13
2019-03-06T16:54:31.006Z,34.13
2019-03-06T16:57:03.929Z,34.93
2019-03-06T16:59:36.319Z,34.71
2019-03-06T17:02:09.290Z,34.77
2019-03-06T17:04:41.862Z,35.77
2019-03-06T17:07:14.540Z,36.12
2019-03-06T17:09:46.871Z,35.78
2019-03-06T17:12:19.389Z,35.78
2019-03-06T17:14:52.144Z,34.31
2019-03-06T17:17:24.803Z,34.31
2019-03-06T17:19:57.481Z,34.35
2019-03-06T17:22:29.826Z,34.09
2019-03-06T17:25:01.935Z,34.46
2019-03-06T17:27:34.999Z,34.13
2019-03-06T17:30:10.128Z,34.17
2019-03-06T17:32:59.325Z,34.23
2019-03-06T17:35:32.876Z,34.05
2019-03-06T17:38:05.489Z,34.93
2019-03-06T17:40:37.977Z,34.47
2019-03-06T17:43:10.496Z,34.47
2019-03-06T17:45:43.331Z,34.38
2019-03-06T17:48:15.854Z,34.38
2019-03-06T17:50:48.064Z,35.08
2019-03-06T17:53:21.110Z,34.52
2019-03-06T17:55:53.956Z,34.48
2019-03-06T17:58:26.339Z,35.59
2019-03-06T18:01:07.459Z,34.59
2019-03-06T18:03:51.627Z,34.65
2019-03-06T18:06:24.314Z,34.29
2019-03-06T18:08:56.973Z,34.41
2019-03-06T18:11:29.464Z,35.28
2019-03-06T18:14:01.865Z,35.20
2019-03-06T18:16:34.090Z,35.03
2019-03-06T18:19:06.880Z,36.36
2019-03-06T18:21:39.323Z,35.60
2019-03-06T18:24:11.776Z,35.57
2019-03-06T18:26:44.332Z,35.68
2019-03-06T18:29:17.089Z,35.52
2019-03-06T18:31:49.888Z,35.52
2019-03-06T18:34:21.865Z,35.30
2019-03-06T18:36:53.960Z,34.93
2019-03-06T18:39:26.311Z,35.38
2019-03-06T18:41:59.588Z,35.43
2019-03-06T18:44:30.734Z,34.46
2019-03-06T18:47:02.962Z,34.76
2019-03-06T18:49:35.957Z,35.05
2019-03-06T18:52:08.443Z,35.27
2019-03-06T18:54:40.866Z,34.83
2019-03-06T18:57:13.454Z,34.56
2019-03-06T18:59:45.840Z,37.08
2019-03-06T19:02:18.063Z,37.08
2019-03-06T19:04:50.856Z,36.91
2019-03-06T19:07:23.164Z,36.45
2019-03-06T19:09:55.843Z,36.75
2019-03-06T19:12:28.641Z,36.57
2019-03-06T19:15:00.375Z,36.50
2019-03-06T19:17:33.941Z,37.22
2019-03-06T19:20:06.064Z,37.22
2019-03-06T19:27:56.784Z,36.70
2019-03-06T19:32:27.813Z,39.69
2019-03-06T19:34:59.934Z,37.15
2019-03-06T19:37:32.252Z,38.79
2019-03-06T19:40:05.382Z,37.20
2019-03-06T19:42:37.824Z,39.04
2019-03-06T19:45:11.800Z,38.93
2019-03-06T19:47:43.990Z,38.18
2019-03-06T19:50:20.337Z,38.75
2019-03-06T19:52:52.800Z,38.47
2019-03-06T19:55:25.753Z,38.56
2019-03-06T19:58:01.662Z,37.95
2019-03-06T20:00:33.842Z,38.33
2019-03-06T20:03:07.501Z,37.59
2019-03-06T20:05:41.225Z,38.87
2019-03-06T20:08:15.501Z,38.75
2019-03-06T20:10:47.891Z,38.12
2019-03-06T20:13:20.739Z,37.49
2019-03-06T20:15:52.994Z,38.00
2019-03-06T20:18:25.798Z,38.62
2019-03-06T20:20:58.482Z,38.36
2019-03-06T20:23:31.581Z,38.24
2019-03-06T20:26:02.866Z,38.24
2019-03-06T20:28:35.193Z,38.77
2019-03-06T20:31:07.769Z,37.57
2019-03-06T20:33:39.810Z,38.45
2019-03-06T20:36:13.313Z,38.20
2019-03-06T20:38:45.904Z,38.04
2019-03-06T20:41:19.357Z,38.73
2019-03-06T20:43:52.473Z,39.03
2019-03-06T20:46:27.837Z,38.25
2019-03-06T20:49:00.331Z,38.25
2019-03-06T20:51:32.871Z,38.82
2019-03-06T20:54:05.485Z,39.17
2019-03-06T20:56:37.899Z,38.39
2019-03-06T20:59:09.998Z,38.39
2019-03-06T21:01:42.340Z,39.09
2019-03-06T21:04:15.041Z,39.43
2019-03-06T21:06:47.834Z,38.85
2019-03-06T21:09:19.914Z,39.40
2019-03-06T21:11:53.018Z,38.74
2019-03-06T21:14:25.855Z,39.19
2019-03-06T21:16:59.308Z,38.23
2019-03-06T21:19:31.960Z,38.63
2019-03-06T21:22:04.851Z,39.08
2019-03-06T21:24:37.028Z,38.47
2019-03-06T21:27:10.508Z,38.35
2019-03-06T21:29:42.887Z,38.85
2019-03-06T21:32:15.338Z,38.85
2019-03-06T21:34:48.344Z,38.68
2019-03-06T21:37:20.905Z,39.05
2019-03-06T21:39:53.303Z,39.41
2019-03-06T21:42:25.885Z,39.07
2019-03-06T21:44:58.917Z,38.98
2019-03-06T21:47:31.840Z,38.60
2019-03-06T21:50:04.098Z,39.09
2019-03-06T21:59:36.101Z,38.10
2019-03-06T22:02:08.873Z,38.31
2019-03-06T22:04:41.876Z,38.36
2019-03-06T22:07:14.487Z,38.70
2019-03-06T22:09:46.879Z,38.05
2019-03-06T22:12:19.118Z,38.42
2019-03-06T22:14:51.879Z,38.89
2019-03-06T22:17:24.101Z,39.00
2019-03-06T22:19:56.909Z,38.63
2019-03-06T22:22:29.100Z,38.60
2019-03-06T22:25:01.435Z,38.21
2019-03-06T22:27:34.321Z,38.60
2019-03-06T22:30:07.499Z,38.28
2019-03-06T22:32:39.907Z,38.71
2019-03-06T22:35:12.075Z,38.71
2019-03-06T22:37:46.524Z,39.03
2019-03-06T22:40:19.337Z,38.45
2019-03-06T22:42:52.330Z,38.97
2019-03-06T22:45:24.875Z,38.63
2019-03-06T22:47:56.866Z,37.95
2019-03-06T22:50:28.975Z,38.22
2019-03-06T22:53:01.096Z,38.57
2019-03-06T22:55:33.480Z,39.03
2019-03-06T22:58:05.910Z,38.79
2019-03-06T23:01:01.353Z,38.79
2019-03-06T23:03:34.901Z,38.91
2019-03-06T23:06:07.110Z,38.81
2019-03-06T23:08:43.041Z,38.88
2019-03-06T23:11:15.462Z,38.55
2019-03-06T23:13:47.889Z,38.34
2019-03-06T23:16:20.379Z,38.63
2019-03-06T23:18:53.049Z,38.61
2019-03-06T23:21:25.910Z,38.70
2019-03-06T23:23:59.496Z,38.52
2019-03-06T23:26:32.037Z,37.92
2019-03-06T23:29:04.882Z,38.75
2019-03-06T23:31:37.483Z,38.64
2019-03-06T23:34:10.252Z,38.27
2019-03-06T23:36:43.479Z,38.27
2019-03-06T23:39:15.895Z,38.62
2019-03-06T23:41:48.003Z,38.62
2019-03-06T23:44:20.709Z,38.75
2019-03-06T23:46:52.996Z,38.37
2019-03-06T23:49:26.941Z,38.82
2019-03-06T23:52:05.363Z,38.30
2019-03-06T23:54:38.407Z,38.14
2019-03-06T23:57:11.421Z,38.28
2019-03-06T23:59:43.889Z,38.68
